Tiempo atmosférico en la estación meteorológica de Atzeneta Del Maestrat, Castelló/Castellón (420 m.)



Fecha
DESCASC
Temp. máxima en grados centígrados (hora)
DESCASC
Temp. mínima en grados centígrados (hora)
DESCASC
Temp. media en grados centígrados
DESCASC
Racha de viento máxima en m/sg (hora)
DESCASC
Velocidad máxima media en intervalos de 10 minutos(hora)
DESCASC
Precipitaciones diarias en mm
DESCASC
Precipitaciones de 00:00 a 06:00 en mm
DESCASC
Precipitaciones de 06:00 a 12:00 en mm
DESCASC
Precipitaciones de 12:00 a 18:00 en mm
DESCASC
Precipitaciones de 18:00 a 24:00 en mm
DESCASC
18-02-2018 16.2 (15:10) 1.5 (07:40) 8.9 8.06 (15:50) 5.56 (15:50) 0 0 0 0 0
17-02-2018 18.1 (12:50) 5 (07:10) 11.6 12.5 (13:50) 6.94 (13:50) 0 0 0 0 0
16-02-2018 21.1 (14:30) 6.8 (05:50) 14 7.22 (14:40) 3.61 (15:50) 0 0 0 0 0
15-02-2018 22.7 (15:10) 5.9 (00:00) 14.3 8.06 (03:10) 4.17 (03:20) 0 0 0 0 0
14-02-2018 16 (14:20) 2.4 (00:00) 9.2 11.11 (14:40) 6.39 (14:40) 0 0 0 0 0
13-02-2018 12.4 (17:10) -2 (-00:0) 5.2 11.39 (17:40) 7.22 (00:20) 0 0 0 0 0
12-02-2018 13.1 (00:20) 4.9 (00:00) 9 11.94 (23:40) 7.5 (03:50) 0 0 0 0 0
11-02-2018 18.2 (15:40) 4.3 (00:00) 11.3 11.11 (15:50) 6.11 (15:50) 0 0 0 0 0
10-02-2018 9.2 (12:00) 4.8 (00:00) 7 15.28 (11:30) 8.89 (11:30) 0 0 0 0 0
09-02-2018 12 (15:30) -2.1 (-00:0) 5 11.67 (23:20) 5.83 (23:00) 0 0 0 0 0
08-02-2018 8 (13:00) -0.9 (-00:0) 3.6 12.78 (10:00) 6.39 (10:00) 0 0 0 0 0
07-02-2018 8.6 (14:20) 1.4 (00:00) 5 16.11 (03:40) 9.17 (13:20) 0 0 0 0 0
06-02-2018 5 (13:00) 2.8 (00:00) 3.9 16.11 (21:00) 8.33 (23:40) 2.8 2.2 0.6 0 0
05-02-2018 10.1 (16:30) 3.4 (00:00) 6.8 5 (22:20) 3.06 (18:00) 9.2 1.8 6.4 0 1
04-02-2018 9 (00:20) 4.1 (00:00) 6.5 3.89 (00:30) 1.94 (10:30) 14.2 0.2 10.8 2.8 0.4
03-02-2018 12.4 (15:30) 4.9 (00:00) 8.6 21.39 (03:30) 12.78 (03:40) 0 0 0 0 0
02-02-2018 9 (15:40) 4.3 (00:00) 6.7 18.61 (19:20) 10.28 (19:20) 0.2 0 0.2 0 0
01-02-2018 13.3 (13:30) 0.1 (00:00) 6.7 10.28 (15:30) 6.39 (15:30) 2.4 0 0 2.2 0.2
31-01-2018 15.6 (14:20) -1.1 (-00:0) 7.3 5.83 (14:50) 3.06 (15:40) 0 0 0 0 0
30-01-2018 17.2 (14:40) -0.2 (00:00) 8.5 6.11 (16:20) 3.61 (16:20) 0 0 0 0 0
29-01-2018 16.6 (15:30) 0.2 (00:00) 8.4 5 (16:10) 3.06 (17:20) 0 0 0 0 0
28-01-2018 10.4 (13:40) 3.4 (00:00) 6.9 11.11 (00:40) 6.11 (01:20) 0.6 0.4 0.2 0 0
27-01-2018 11.4 (14:00) 6 (00:00) 8.7 18.06 (01:10) 8.61 (01:10) 0 0 0 0 0
26-01-2018 9.1 (16:20) 6.5 (00:00) 7.8 20.83 (13:20) 11.11 (13:20) 4 4 0 0 0
25-01-2018 14.9 (15:30) 1.6 (00:00) 8.2 4.44 (14:50) 2.78 (16:10) 0.4 0 0 0 0.4
24-01-2018 18.3 (13:30) 2.4 (00:00) 10.3 7.22 (14:00) 4.72 (14:10) 0 0 0 0 0
23-01-2018 21.6 (14:00) 5.7 (00:00) 13.7 7.5 (02:30) 4.72 (03:00) 0 0 0 0 0
22-01-2018 25 (15:40) 6.9 (00:00) 16 8.61 (22:20) 4.72 (16:50) 0 0 0 0 0

Gráficas

Temp. máximas Temp. mínimas Temp. medias Precipitaciones Rachas de viento máximas Velocidades máximas media en intervalos de 10 minutos

Datos horarios

Fecha y hora oficial Temperatura (ºC) Velocidad del viento (km/h) Dirección del viento Racha (km/h) Dirección de racha Precipitación (mm) Presión (hPa) Tendencia (hPa) Humedad (%)
2018-02-20 23:00:00 10.4 31 Norte 61 Norte 0 -- -- 50
2018-02-20 22:00:00 10.6 33 Norte 70 Norte 0 -- -- 51
2018-02-20 21:00:00 11.3 27 Norte 62 Norte 0 -- -- 48
2018-02-20 20:00:00 11.9 24 Norte 61 Norte 0 -- -- 47
2018-02-20 19:00:00 12.3 24 Norte 58 Norte 0 -- -- 49
2018-02-20 18:00:00 13.2 19 Nordeste 58 Norte 0 -- -- 49
2018-02-20 17:00:00 13.8 30 Norte 50 Norte 0 -- -- 47
2018-02-20 16:00:00 14.9 14 Norte 56 Norte 0 -- -- 44
2018-02-20 15:00:00 15.9 28 Norte 55 Norte 0 -- -- 43
2018-02-20 14:00:00 15.8 28 Norte 63 Norte 0 -- -- 42
2018-02-20 13:00:00 16.2 36 Norte 70 Norte 0 -- -- 42
2018-02-20 12:00:00 15.6 41 Norte 68 Nordeste 0 -- -- 42
2018-02-20 11:00:00 15.8 34 Norte 62 Norte 0 -- -- 45
2018-02-20 10:00:00 14 28 Norte 68 Norte 0 -- -- 49
2018-02-20 09:00:00 13.1 32 Norte 62 Norte 0 -- -- 55
2018-02-20 08:00:00 12.3 23 Norte 56 Norte 0 -- -- 58
2018-02-20 07:00:00 12.2 17 Norte 65 Norte 0 -- -- 58
2018-02-20 06:00:00 12.5 20 Nordeste 42 Norte 0 -- -- 57
2018-02-20 05:00:00 12.6 8 Norte 28 Norte 0 -- -- 56
2018-02-20 04:00:00 11.7 5 Norte 13 Noroeste 0 -- -- 57
2018-02-20 03:00:00 11.3 4 Sur 11 Sudoeste 0 -- -- 60
2018-02-20 02:00:00 11.4 8 Oeste 30 Norte 0 -- -- 59
2018-02-20 01:00:00 11.4 8 Norte 21 Noroeste 0 -- -- 59
2018-02-20 00:00:00 9.9 3 Norte 20 Norte 0 -- -- 65
2018-02-19 23:00:00 10 6 Norte 19 Oeste 0 -- -- 66
2018-02-19 22:00:00 9.2 6 Sudoeste 12 Sudeste 0 -- -- 72
2018-02-19 21:00:00 9.9 3 Sudoeste 10 Noroeste 0 -- -- 71
2018-02-19 20:00:00 11.1 4 Nordeste 10 Norte 0 -- -- 68
2018-02-19 19:00:00 11.7 3 Sur 10 Sur 0 -- -- 63
2018-02-19 18:00:00 12.4 8 Sudoeste 14 Sudoeste 0 -- -- 61
2018-02-19 17:00:00 13.8 5 Sudeste 21 Nordeste 0 -- -- 55
2018-02-19 16:00:00 14.8 14 Nordeste 33 Norte 0 -- -- 48
2018-02-19 15:00:00 14.8 14 Nordeste 29 Norte 0 -- -- 47
2018-02-19 14:00:00 15.8 10 Nordeste 34 Nordeste 0 -- -- 45
2018-02-19 13:00:00 16 21 Nordeste 34 Norte 0 -- -- 45
2018-02-19 12:00:00 14.6 14 Nordeste 27 Nordeste 0 -- -- 50
2018-02-19 11:00:00 13.9 13 Norte 30 Norte 0 -- -- 51
2018-02-19 10:00:00 12.6 10 Nordeste 18 Nordeste 0 -- -- 54
2018-02-19 09:00:00 11 6 Norte 17 Noroeste 0 -- -- 58
2018-02-19 08:00:00 8.8 6 Noroeste 17 Noroeste 0 -- -- 65
2018-02-19 07:00:00 9.6 13 Norte 27 Norte 0 -- -- 62
2018-02-19 06:00:00 9.7 8 Norte 32 Noroeste 0 -- -- 60
2018-02-19 05:00:00 9.7 11 Norte 23 Noroeste 0 -- -- 61
2018-02-19 04:00:00 10.1 11 Noroeste 22 Norte 0 -- -- 60
2018-02-19 03:00:00 10.1 7 Norte 17 Norte 0 -- -- 61
2018-02-19 02:00:00 10.3 3 Este 19 Nordeste 0 -- -- 62
2018-02-19 01:00:00 10.7 4 Este 17 Norte 0 -- -- 61
2018-02-19 00:00:00 10.3 3 Sur 14 Oeste 0 -- -- 63
2018-02-18 23:00:00 9.6 3 Este 23 Norte 0 -- -- 63
2018-02-18 22:00:00 7.4 4 Sudoeste 14 Este 0 -- -- 69
2018-02-18 21:00:00 6.5 4 Sudoeste 8 Oeste 0 -- -- 72
2018-02-18 20:00:00 8.2 3 Norte 10 Noroeste 0 -- -- 66
2018-02-18 19:00:00 10 0 Calma 12 Sur 0 -- -- 59
2018-02-18 18:00:00 12.3 9 Sur 16 Sur 0 -- -- 53
2018-02-18 17:00:00 14.7 6 Sur 26 Sur 0 -- -- 44
2018-02-18 16:00:00 15.2 19 Sur 29 Sudeste 0 -- -- 42
2018-02-18 15:00:00 15.9 6 Sur 18 Sudeste 0 -- -- 37
2018-02-18 14:00:00 15.5 5 Sudeste 15 Este 0 -- -- 38
2018-02-18 13:00:00 13.9 10 Este 23 Nordeste 0 -- -- 40
2018-02-18 12:00:00 12.9 14 Norte 23 Nordeste 0 -- -- 45
2018-02-18 11:00:00 11.5 10 Nordeste 21 Nordeste 0 -- -- 50
2018-02-18 10:00:00 9.7 10 Nordeste 19 Nordeste 0 -- -- 52
2018-02-18 09:00:00 4 2 Sudeste 7 Oeste 0 -- -- 74
2018-02-18 08:00:00 1.5 0 Calma 4 Noroeste 0 -- -- 79
2018-02-18 07:00:00 2.3 3 Sudeste 12 Sudoeste 0 -- -- 75
2018-02-18 06:00:00 2.5 7 Sudoeste 11 Sudoeste 0 -- -- 76
2018-02-18 05:00:00 3.7 2 Sur 7 Norte 0 -- -- 69
2018-02-18 04:00:00 5.7 5 Oeste 8 Sudoeste 0 -- -- 62
2018-02-18 03:00:00 8 8 Nordeste 13 Nordeste 0 -- -- 52
2018-02-18 02:00:00 9.3 5 Norte 22 Norte 0 -- -- 46
2018-02-18 01:00:00 9.7 13 Nordeste 19 Nordeste 0 -- -- 45
2018-02-18 00:00:00 9.7 7 Nordeste 9 Norte 0 -- -- 50
2018-02-17 23:00:00 10.5 5 Norte 12 Nordeste 0 -- -- 50
2018-02-17 22:00:00 11.1 7 Este 17 Norte 0 -- -- 46
2018-02-17 21:00:00 11.9 5 Norte 20 Nordeste 0 -- -- 41
2018-02-17 20:00:00 12.3 8 Nordeste 15 Este 0 -- -- 48
2018-02-17 19:00:00 13 4 Este 27 Noroeste 0 -- -- 51
2018-02-17 18:00:00 14.3 16 Norte 33 Noroeste 0 -- -- 50
2018-02-17 17:00:00 15.1 16 Norte 31 Noroeste 0 -- -- 53
2018-02-17 16:00:00 15.4 13 Norte 32 Nordeste 0 -- -- 54
2018-02-17 15:00:00 15.3 17 Norte 39 Norte 0 -- -- 55
2018-02-17 14:00:00 15.4 25 Norte 45 Norte 0 -- -- 59
2018-02-17 13:00:00 17.8 19 Norte 38 Norte 0 -- -- 52
2018-02-17 12:00:00 17.6 14 Nordeste 26 Nordeste 0 -- -- 55
2018-02-17 11:00:00 12.9 3 Sudeste 8 Sudeste 0 -- -- 75
2018-02-17 10:00:00 10.2 3 Sur 7 Oeste 0 -- -- 85
2018-02-17 09:00:00 6.6 2 Oeste 7 Oeste 0 -- -- 95
2018-02-17 08:00:00 5.4 0 Calma 9 Noroeste 0 -- -- 94
2018-02-17 07:00:00 5.2 0 Calma 3 Noroeste 0 -- -- 93
2018-02-17 06:00:00 5.5 2 Sudoeste 4 Sudoeste 0 -- -- 94
2018-02-17 05:00:00 5.3 2 Sudoeste 4 Sudoeste 0 -- -- 92
2018-02-17 04:00:00 5.9 0 Calma 4 Nordeste 0 -- -- 90
2018-02-17 03:00:00 6.7 0 Calma 4 Oeste 0 -- -- 91
2018-02-17 02:00:00 6.2 0 Calma 4 Norte 0 -- -- 90
2018-02-17 01:00:00 6.9 2 Nordeste 4 Norte 0 -- -- 87
2018-02-17 00:00:00 7.5 0 Calma 3 Noroeste 0 -- -- 85
2018-02-16 23:00:00 8.6 2 Norte 3 Noroeste 0 -- -- 81
2018-02-16 22:00:00 9.9 2 Este 6 Norte 0 -- -- 78
2018-02-16 21:00:00 11.6 3 Oeste 8 Noroeste 0 -- -- 72
2018-02-16 20:00:00 13.4 6 Norte 8 Noroeste 0 -- -- 68
2018-02-16 19:00:00 15.3 4 Sudeste 12 Sudeste 0 -- -- 61
2018-02-16 18:00:00 16.8 8 Sudeste 17 Sudeste 0 -- -- 57
2018-02-16 17:00:00 18.3 8 Sur 18 Sur 0 -- -- 56
2018-02-16 16:00:00 20.5 13 Sur 19 Sudeste 0 -- -- 48
2018-02-16 15:00:00 20.1 9 Sur 26 Sudeste 0 -- -- 48
2018-02-16 14:00:00 20 13 Sudeste 20 Sudeste 0 -- -- 48
2018-02-16 13:00:00 19.1 6 Sudeste 13 Sudeste 0 -- -- 51
2018-02-16 12:00:00 17 0 Calma 4 Sur 0 -- -- 57
2018-02-16 11:00:00 14.2 3 Sudoeste 4 Sudoeste 0 -- -- 66
2018-02-16 10:00:00 11.4 3 Sudoeste 4 Sudoeste 0 -- -- 79
2018-02-16 09:00:00 8.2 0 Calma 2 Sur 0 -- -- 91
2018-02-16 08:00:00 7.5 0 Calma 3 Oeste 0 -- -- 88
2018-02-16 07:00:00 7.3 0 Calma 3 Noroeste 0 -- -- 88
2018-02-16 06:00:00 6.9 0 Calma 5 Norte 0 -- -- 90
2018-02-16 05:00:00 7.2 0 Calma 2 Noroeste 0 -- -- 88
2018-02-16 04:00:00 7.2 0 Calma 4 Norte 0 -- -- 88
2018-02-16 03:00:00 7.5 0 Calma 4 Sudeste 0 -- -- 86
2018-02-16 02:00:00 7.3 0 Calma 4 Sudoeste 0 -- -- 86
2018-02-16 01:00:00 7.8 0 Calma 3 Sudoeste 0 -- -- 84
2018-02-16 00:00:00 8.2 0 Calma 3 Norte 0 -- -- 83
2018-02-15 23:00:00 8.5 0 Calma 3 Sudeste 0 -- -- 80
2018-02-15 22:00:00 9 0 Calma 7 Noroeste 0 -- -- 78
2018-02-15 21:00:00 10.5 2 Oeste 6 Norte 0 -- -- 73
2018-02-15 20:00:00 12.2 2 Nordeste 6 Noroeste 0 -- -- 68
2018-02-15 19:00:00 14.8 3 Sudoeste 14 Sudoeste 0 -- -- 61
2018-02-15 18:00:00 18.1 7 Sur 17 Sudoeste 0 -- -- 52
2018-02-15 17:00:00 20 14 Sur 22 Sur 0 -- -- 46
2018-02-15 16:00:00 21.6 14 Sur 23 Sur 0 -- -- 43
2018-02-15 15:00:00 22.2 7 Sudeste 21 Sudeste 0 -- -- 41
2018-02-15 14:00:00 21.5 6 Sur 19 Sudeste 0 -- -- 40
2018-02-15 13:00:00 21.5 12 Sur 21 Sur 0 -- -- 40
2018-02-15 12:00:00 20.3 9 Sur 22 Sudeste 0 -- -- 44
2018-02-15 11:00:00 16.1 0 Calma 7 Sudeste 0 -- -- 55
2018-02-15 10:00:00 12.8 3 Sudeste 6 Sur 0 -- -- 67
2018-02-15 09:00:00 7.9 0 Calma 8 Norte 0 -- -- 80
2018-02-15 08:00:00 6.1 3 Este 9 Norte 0 -- -- 84
2018-02-15 07:00:00 7 0 Calma 14 Sur 0 -- -- 80
2018-02-15 06:00:00 8.4 7 Sudoeste 14 Sur 0 -- -- 75
2018-02-15 05:00:00 9.8 5 Oeste 12 Sudeste 0 -- -- 70
2018-02-15 04:00:00 12.8 3 Sudeste 29 Noroeste 0 -- -- 60
2018-02-15 03:00:00 12.5 8 Noroeste 17 Noroeste 0 -- -- 62
2018-02-15 02:00:00 9.7 10 Noroeste 17 Noroeste 0 -- -- 74
2018-02-15 01:00:00 8.7 7 Noroeste 14 Noroeste 0 -- -- 74
2018-02-15 00:00:00 8 4 Oeste 10 Sudoeste 0 -- -- 76
2018-02-14 23:00:00 9 3 Norte 8 Noroeste 0 -- -- 72
2018-02-14 22:00:00 10.1 3 Sudoeste 10 Nordeste 0 -- -- 67
2018-02-14 21:00:00 11.6 4 Oeste 21 Sudeste 0 -- -- 61
2018-02-14 20:00:00 12.1 5 Sudoeste 8 Oeste 0 -- -- 59
2018-02-14 19:00:00 13.8 6 Oeste 23 Noroeste 0 -- -- 53
2018-02-14 18:00:00 14.7 3 Este 20 Este 0 -- -- 51
2018-02-14 17:00:00 15.1 4 Noroeste 31 Norte 0 -- -- 50
2018-02-14 16:00:00 15 12 Noroeste 33 Noroeste 0 -- -- 50
2018-02-14 15:00:00 15.3 19 Noroeste 40 Noroeste 0 -- -- 47
2018-02-14 14:00:00 15.5 6 Noroeste 27 Noroeste 0 -- -- 47
2018-02-14 13:00:00 14.7 18 Noroeste 37 Noroeste 0 -- -- 48
2018-02-14 12:00:00 15 21 Noroeste 35 Noroeste 0 -- -- 46
2018-02-14 11:00:00 12.2 22 Noroeste 38 Noroeste 0 -- -- 55
2018-02-14 10:00:00 5.8 0 Calma 7 Noroeste 0 -- -- 79
2018-02-14 09:00:00 3.4 3 Norte 10 Noroeste 0 -- -- 85
2018-02-14 08:00:00 2.6 3 Sudeste 13 Norte 0 -- -- 85
2018-02-14 07:00:00 2.8 3 Este 10 Oeste 0 -- -- 85
2018-02-14 06:00:00 2.9 5 Oeste 11 Norte 0 -- -- 84
2018-02-14 05:00:00 4.1 3 Sudoeste 10 Oeste 0 -- -- 80
2018-02-14 04:00:00 3.8 4 Sur 9 Sudoeste 0 -- -- 81
2018-02-14 03:00:00 3.7 3 Oeste 8 Nordeste 0 -- -- 80
2018-02-14 02:00:00 3.7 0 Calma 5 Oeste 0 -- -- 77
2018-02-14 01:00:00 4 0 Calma 12 Norte 0 -- -- 74
2018-02-14 00:00:00 4.2 3 Este 12 Oeste 0 -- -- 73
2018-02-13 23:00:00 5.2 6 Oeste 10 Sudoeste 0 -- -- 69
2018-02-13 22:00:00 4.9 5 Este 10 Este 0 -- -- 70
2018-02-13 21:00:00 6.1 3 Nordeste 13 Nordeste 0 -- -- 65
2018-02-13 20:00:00 8 7 Nordeste 17 Oeste 0 -- -- 59
2018-02-13 19:00:00 9.7 3 Sudeste 22 Oeste 0 -- -- 52
2018-02-13 18:00:00 11.7 8 Sudoeste 41 Oeste 0 -- -- 46
2018-02-13 17:00:00 12.3 13 Noroeste 24 Noroeste 0 -- -- 44
2018-02-13 16:00:00 11.7 3 Este 30 Este 0 -- -- 44
2018-02-13 15:00:00 11.4 12 Nordeste 29 Norte 0 -- -- 43
2018-02-13 14:00:00 12.2 6 Sudeste 15 Sudeste 0 -- -- 34
2018-02-13 13:00:00 10.3 3 Este 9 Sudeste 0 -- -- 37
2018-02-13 12:00:00 8.4 2 Norte 11 Norte 0 -- -- 42
2018-02-13 11:00:00 7.2 3 Nordeste 8 Este 0 -- -- 45
2018-02-13 10:00:00 4.7 3 Sur 9 Este 0 -- -- 54
2018-02-13 09:00:00 0.2 0 Calma 8 Sudeste 0 -- -- 69
2018-02-13 08:00:00 -0.7 4 Noroeste 13 Oeste 0 -- -- 65
2018-02-13 07:00:00 -0.4 4 Oeste 7 Norte 0 -- -- 63
2018-02-13 06:00:00 -0.6 6 Sudoeste 10 Noroeste 0 -- -- 63
2018-02-13 05:00:00 -1.5 2 Oeste 8 Oeste 0 -- -- 69
2018-02-13 04:00:00 0 7 Sudoeste 11 Norte 0 -- -- 62
2018-02-13 03:00:00 1.7 6 Norte 13 Norte 0 -- -- 57
2018-02-13 02:00:00 3.9 10 Noroeste 30 Noroeste 0 -- -- 48
2018-02-13 01:00:00 4.3 15 Noroeste 41 Norte 0 -- -- 47
2018-02-13 00:00:00 4.9 25 Norte 43 Noroeste 0 -- -- 45
2018-02-12 23:00:00 5.2 21 Noroeste 33 Noroeste 0 -- -- 42
2018-02-12 22:00:00 5.7 16 Norte 36 Norte 0 -- -- 44
2018-02-12 21:00:00 6 12 Norte 26 Norte 0 -- -- 46
2018-02-12 20:00:00 5.7 8 Noroeste 16 Noroeste 0 -- -- 49
2018-02-12 19:00:00 6.9 8 Noroeste 32 Noroeste 0 -- -- 48
2018-02-12 18:00:00 9.7 10 Noroeste 27 Noroeste 0 -- -- 42
2018-02-12 17:00:00 9.6 12 Norte 24 Norte 0 -- -- 42
2018-02-12 16:00:00 10.5 16 Norte 33 Noroeste 0 -- -- 40
2018-02-12 15:00:00 10.3 16 Norte 32 Norte 0 -- -- 42
2018-02-12 14:00:00 10 22 Norte 36 Noroeste 0 -- -- 45
2018-02-12 13:00:00 10.8 14 Noroeste 27 Noroeste 0 -- -- 42
2018-02-12 12:00:00 11.3 16 Noroeste 28 Noroeste 0 -- -- 43
2018-02-12 11:00:00 11 12 Noroeste 33 Noroeste 0 -- -- 46
2018-02-12 10:00:00 10.2 19 Noroeste 31 Noroeste 0 -- -- 50
2018-02-12 09:00:00 7.8 3 Noroeste 22 Noroeste 0 -- -- 57
2018-02-12 08:00:00 7.8 10 Noroeste 30 Noroeste 0 -- -- 57
2018-02-12 07:00:00 7.8 8 Oeste 17 Norte 0 -- -- 63
2018-02-12 06:00:00 8.8 6 Norte 13 Norte 0 -- -- 61
2018-02-12 05:00:00 9.2 5 Nordeste 29 Norte 0 -- -- 62
2018-02-12 04:00:00 10 23 Norte 37 Norte 0 -- -- 62
2018-02-12 03:00:00 10.4 8 Nordeste 16 Nordeste 0 -- -- 66
2018-02-12 02:00:00 11.3 6 Nordeste 31 Norte 0 -- -- 61
2018-02-12 01:00:00 12.5 10 Norte 23 Noroeste 0 -- -- 57
2018-02-12 00:00:00 12.8 7 Norte 15 Norte 0 -- -- 57
2018-02-11 23:00:00 12.6 10 Oeste 19 Noroeste 0 -- -- 57
2018-02-11 22:00:00 13 7 Noroeste 25 Norte 0 -- -- 56
2018-02-11 21:00:00 13 6 Noroeste 20 Norte 0 -- -- 55
2018-02-11 20:00:00 12.8 5 Noroeste 14 Oeste 0 -- -- 53
2018-02-11 19:00:00 13.4 5 Oeste 21 Oeste 0 -- -- 52
2018-02-11 18:00:00 14.8 12 Noroeste 27 Noroeste 0 -- -- 49
2018-02-11 17:00:00 16.7 13 Noroeste 32 Noroeste 0 -- -- 43
2018-02-11 16:00:00 17.9 21 Norte 40 Noroeste 0 -- -- 42
2018-02-11 15:00:00 17 10 Noroeste 32 Noroeste 0 -- -- 45
2018-02-11 14:00:00 16.6 17 Noroeste 26 Oeste 0 -- -- 47
2018-02-11 13:00:00 17.9 6 Sudoeste 19 Sur 0 -- -- 45
2018-02-11 12:00:00 17 8 Sur 20 Sur 0 -- -- 47
2018-02-11 11:00:00 11.9 2 Nordeste 8 Este 0 -- -- 56
2018-02-11 10:00:00 8.9 4 Sur 10 Sudeste 0 -- -- 63
2018-02-11 09:00:00 6.1 3 Norte 8 Este 0 -- -- 70
2018-02-11 08:00:00 6.1 3 Sudeste 13 Norte 0 -- -- 66
2018-02-11 07:00:00 6.1 7 Norte 11 Norte 0 -- -- 67
2018-02-11 06:00:00 6.3 8 Sur 12 Sudoeste 0 -- -- 66
2018-02-11 05:00:00 5.7 8 Oeste 16 Sudoeste 0 -- -- 68
2018-02-11 04:00:00 5.7 7 Sudoeste 26 Norte 0 -- -- 65
2018-02-11 03:00:00 4.8 5 Sur 16 Noroeste 0 -- -- 68
2018-02-11 02:00:00 4.6 8 Oeste 18 Oeste 0 -- -- 69
2018-02-11 01:00:00 5.9 6 Nordeste 23 Nordeste 0 -- -- 60
2018-02-11 00:00:00 6.9 16 Nordeste 50 Norte 0 -- -- 55
2018-02-10 23:00:00 6.7 17 Nordeste 44 Norte 0 -- -- 55
2018-02-10 22:00:00 6.7 20 Norte 51 Norte 0 -- -- 54
2018-02-10 21:00:00 6.6 22 Norte 50 Norte 0 -- -- 52
2018-02-10 20:00:00 6.7 25 Norte 53 Noroeste 0 -- -- 51
2018-02-10 19:00:00 6.9 22 Norte 39 Noroeste 0 -- -- 50
2018-02-10 18:00:00 8.1 17 Norte 42 Norte 0 -- -- 45
2018-02-10 17:00:00 8.8 19 Norte 55 Norte 0 -- -- 43
2018-02-10 16:00:00 8.6 26 Norte 52 Norte 0 -- -- 43
2018-02-10 15:00:00 8.5 23 Nordeste 44 Nordeste 0 -- -- 43
2018-02-10 14:00:00 8.6 24 Norte 44 Norte 0 -- -- 41
2018-02-10 13:00:00 9 26 Norte 55 Norte 0 -- -- 38
2018-02-10 12:00:00 9.2 22 Norte 55 Norte 0 -- -- 37
2018-02-10 11:00:00 8.3 25 Norte 49 Norte 0 -- -- 40
2018-02-10 10:00:00 7 19 Norte 54 Norte 0 -- -- 40
2018-02-10 09:00:00 5.8 12 Norte 35 Este 0 -- -- 44
2018-02-10 08:00:00 4.8 5 Norte 36 Noroeste 0 -- -- 46
2018-02-10 07:00:00 4.9 10 Norte 36 Noroeste 0 -- -- 49
2018-02-10 06:00:00 5.2 18 Noroeste 37 Noroeste 0 -- -- 45
2018-02-10 05:00:00 5.4 14 Noroeste 41 Noroeste 0 -- -- 44
2018-02-10 04:00:00 5.7 13 Norte 37 Norte 0 -- -- 43
2018-02-10 03:00:00 6.2 15 Sur 39 Sur 0 -- -- 46
2018-02-10 02:00:00 6.1 8 Noroeste 35 Noroeste 0 -- -- 46
2018-02-10 01:00:00 6.8 22 Norte 50 Norte 0 -- -- 47
2018-02-10 00:00:00 7.4 9 Norte 42 Norte 0 -- -- 48
2018-02-09 23:00:00 8.6 21 Norte 41 Noroeste 0 -- -- 48
2018-02-09 22:00:00 6.7 6 Norte 22 Norte 0 -- -- 67
2018-02-09 21:00:00 5.4 5 Norte 13 Norte 0 -- -- 63
2018-02-09 20:00:00 6.2 3 Oeste 13 Noroeste 0 -- -- 61
2018-02-09 19:00:00 7.6 5 Noroeste 16 Noroeste 0 -- -- 57
2018-02-09 18:00:00 8.8 5 Sudeste 15 Sur 0 -- -- 48
2018-02-09 17:00:00 10.1 10 Sur 21 Sur 0 -- -- 42
2018-02-09 16:00:00 11.7 13 Sur 20 Sur 0 -- -- 37
2018-02-09 15:00:00 11.2 7 Sur 18 Sudeste 0 -- -- 34
2018-02-09 14:00:00 11.7 4 Sudoeste 11 Sudoeste 0 -- -- 33
2018-02-09 13:00:00 10.8 4 Sudoeste 14 Sudeste 0 -- -- 34
2018-02-09 12:00:00 10.2 6 Sur 14 Sudeste 0 -- -- 38
2018-02-09 11:00:00 7.6 3 Este 9 Este 0 -- -- 44
2018-02-09 10:00:00 4.4 4 Sur 7 Oeste 0 -- -- 54
2018-02-09 09:00:00 -0.3 2 Sudoeste 8 Sur 0 -- -- 73
2018-02-09 08:00:00 -0.1 4 Sudoeste 17 Este 0 -- -- 65
2018-02-09 07:00:00 -1.7 2 Nordeste 13 Noroeste 0 -- -- 75
2018-02-09 06:00:00 -1.7 0 Calma 7 Sudoeste 0 -- -- 76
2018-02-09 05:00:00 -0.3 3 Este 6 Este 0 -- -- 72
2018-02-09 04:00:00 -0.2 4 Este 11 Nordeste 0 -- -- 75
2018-02-09 03:00:00 1.7 4 Nordeste 19 Norte 0 -- -- 67
2018-02-09 02:00:00 2.1 9 Norte 20 Norte 0 -- -- 68
2018-02-09 01:00:00 2.8 12 Norte 34 Noroeste 0 -- -- 66
2018-02-09 00:00:00 3.2 10 Norte 20 Norte 0 -- -- 69
2018-02-08 23:00:00 3.5 17 Norte 26 Norte 0 -- -- 69
2018-02-08 22:00:00 4.1 13 Norte 27 Norte 0 -- -- 67
2018-02-08 21:00:00 4.6 13 Norte 23 Norte 0 -- -- 62
2018-02-08 20:00:00 4.8 5 Noroeste 18 Noroeste 0 -- -- 61
2018-02-08 19:00:00 5.5 8 Norte 15 Norte 0 -- -- 56
2018-02-08 18:00:00 6.1 6 Norte 24 Norte 0 -- -- 51
2018-02-08 17:00:00 6.6 10 Noroeste 28 Nordeste 0 -- -- 47
2018-02-08 16:00:00 7.2 11 Noroeste 35 Norte 0 -- -- 47
2018-02-08 15:00:00 7.3 19 Norte 34 Nordeste 0 -- -- 46
2018-02-08 14:00:00 7.7 6 Nordeste 26 Nordeste 0 -- -- 42
2018-02-08 13:00:00 8 15 Nordeste 37 Nordeste 0 -- -- 42
2018-02-08 12:00:00 7.5 12 Nordeste 42 Norte 0 -- -- 42
2018-02-08 11:00:00 6.5 23 Norte 43 Norte 0 -- -- 43
2018-02-08 10:00:00 5.3 23 Noroeste 46 Noroeste 0 -- -- 45
2018-02-08 09:00:00 3.5 17 Nordeste 38 Norte 0 -- -- 49
2018-02-08 08:00:00 0.1 3 Sur 22 Norte 0 -- -- 63
2018-02-08 07:00:00 -0.9 4 Sudoeste 9 Norte 0 -- -- 68
2018-02-08 06:00:00 -0.3 4 Noroeste 14 Sudoeste 0 -- -- 63
2018-02-08 05:00:00 1.4 3 Noroeste 25 Noroeste 0 -- -- 55
2018-02-08 04:00:00 1.9 10 Noroeste 25 Noroeste 0 -- -- 53
2018-02-08 03:00:00 2.3 10 Noroeste 27 Oeste 0 -- -- 49
2018-02-08 02:00:00 2.2 6 Sudoeste 20 Oeste 0 -- -- 48
2018-02-08 01:00:00 2.1 4 Noroeste 19 Noroeste 0 -- -- 50
2018-02-08 00:00:00 1.4 7 Noroeste 23 Norte 0 -- -- 55
2018-02-07 23:00:00 2.1 4 Noroeste 12 Sudoeste 0 -- -- 55
2018-02-07 22:00:00 2.8 4 Noroeste 17 Sudoeste 0 -- -- 52
2018-02-07 21:00:00 3.1 3 Oeste 24 Noroeste 0 -- -- 49
2018-02-07 20:00:00 3.4 11 Noroeste 25 Norte 0 -- -- 50
2018-02-07 19:00:00 3.9 12 Norte 32 Noroeste 0 -- -- 50
2018-02-07 18:00:00 5.3 19 Noroeste 46 Norte 0 -- -- 46
2018-02-07 17:00:00 7 24 Noroeste 41 Noroeste 0 -- -- 42
2018-02-07 16:00:00 8.3 17 Noroeste 36 Norte 0 -- -- 40
2018-02-07 15:00:00 8.6 14 Norte 46 Norte 0 -- -- 37
2018-02-07 14:00:00 8.2 30 Norte 54 Noroeste 0 -- -- 37
2018-02-07 13:00:00 8.3 22 Norte 49 Noroeste 0 -- -- 39
2018-02-07 12:00:00 7.6 27 Norte 54 Noroeste 0 -- -- 40
2018-02-07 11:00:00 5.4 26 Noroeste 48 Noroeste 0 -- -- 47
2018-02-07 10:00:00 4 28 Noroeste 49 Noroeste 0 -- -- 49
2018-02-07 09:00:00 3.5 24 Noroeste 47 Norte 0 -- -- 49
2018-02-07 08:00:00 3.6 21 Noroeste 45 Noroeste 0 -- -- 49
2018-02-07 07:00:00 3.5 24 Noroeste 51 Norte 0 -- -- 51
2018-02-07 06:00:00 3.9 28 Norte 50 Norte 0 -- -- 51
2018-02-07 05:00:00 4.6 26 Norte 54 Norte 0 -- -- 47
2018-02-07 04:00:00 4.8 22 Norte 58 Norte 0 -- -- 46
2018-02-07 03:00:00 4.4 21 Norte 53 Norte 0 -- -- 49
2018-02-07 02:00:00 4.3 30 Norte 57 Norte 0 -- -- 46
2018-02-07 01:00:00 3.8 18 Norte 42 Noroeste 0 -- -- 50
2018-02-07 00:00:00 4.1 21 Norte 54 Norte 0 -- -- 48
2018-02-06 23:00:00 4.7 19 Norte 46 Norte 0 -- -- 48
2018-02-06 22:00:00 4.4 20 Norte 52 Norte 0 -- -- 56
2018-02-06 21:00:00 4.3 28 Norte 58 Norte 0 -- -- 59
2018-02-06 20:00:00 4.2 20 Norte 43 Norte 0 -- -- 61
2018-02-06 19:00:00 3.8 22 Norte 46 Norte 0 -- -- 65
2018-02-06 18:00:00 3.3 18 Norte 40 Norte 0 -- -- 68
2018-02-06 17:00:00 2.8 15 Nordeste 35 Norte 0 -- -- 75
2018-02-06 16:00:00 4.4 14 Nordeste 40 Norte 0 -- -- 65
2018-02-06 15:00:00 4.7 14 Norte 34 Nordeste 0 -- -- 65
2018-02-06 14:00:00 4.7 17 Norte 40 Nordeste 0 -- -- 67
2018-02-06 13:00:00 5 18 Norte 44 Norte 0 -- -- 65
2018-02-06 12:00:00 4.6 16 Nordeste 35 Norte 0 -- -- 69
2018-02-06 11:00:00 3.6 16 Nordeste 41 Norte 0 -- -- 75
2018-02-06 10:00:00 3.8 16 Nordeste 34 Norte 0 -- -- 76
2018-02-06 09:00:00 3.1 14 Nordeste 30 Nordeste 0 -- -- 83
2018-02-06 08:00:00 3.3 12 Nordeste 30 Nordeste 0.4 -- -- 83
2018-02-06 07:00:00 3.8 14 Nordeste 29 Norte 0.2 -- -- 81
2018-02-06 06:00:00 3.9 12 Nordeste 29 Nordeste 0 -- -- 82
2018-02-06 05:00:00 4.2 14 Nordeste 27 Norte 0.2 -- -- 84
2018-02-06 04:00:00 4.1 8 Nordeste 20 Nordeste 1 -- -- 87
2018-02-06 03:00:00 4.5 9 Nordeste 26 Nordeste 0.2 -- -- 85
2018-02-06 02:00:00 4.6 5 Nordeste 17 Norte 0.2 -- -- 86
2018-02-06 01:00:00 4.7 5 Norte 10 Norte 0.6 -- -- 90
2018-02-06 00:00:00 4.9 3 Nordeste 10 Norte 0 -- -- 84
2018-02-05 23:00:00 4.8 3 Norte 18 Norte 0.4 -- -- 87
2018-02-05 22:00:00 5.1 3 Nordeste 14 Norte 0.2 -- -- 89
2018-02-05 21:00:00 5.8 3 Noroeste 14 Norte 0.4 -- -- 87
2018-02-05 20:00:00 6.4 3 Nordeste 14 Nordeste 0 -- -- 80
2018-02-05 19:00:00 7.3 3 Sudeste 17 Sudeste 0 -- -- 85
2018-02-05 18:00:00 8.4 11 Sudeste 17 Sudeste 0 -- -- 82
2018-02-05 17:00:00 9.6 9 Sudeste 13 Sur 0 -- -- 69
2018-02-05 16:00:00 9.8 4 Sudeste 11 Sudeste 0 -- -- 72
2018-02-05 15:00:00 8.6 3 Nordeste 9 Sudeste 0 -- -- 77
2018-02-05 14:00:00 8.1 3 Nordeste 8 Este 0 -- -- 79
2018-02-05 13:00:00 7.3 3 Oeste 5 Oeste 0 -- -- 86
2018-02-05 12:00:00 6.3 0 Calma 4 Sur 0 -- -- 91
2018-02-05 11:00:00 4.8 3 Sudoeste 6 Sudoeste 0 -- -- 95
2018-02-05 10:00:00 4 0 Calma 5 Sudoeste 0 -- -- 96
2018-02-05 09:00:00 3.6 0 Calma 8 Este 0 -- -- 95
2018-02-05 08:00:00 3.7 6 Nordeste 14 Noroeste 2 -- -- 94
2018-02-05 07:00:00 4.1 9 Noroeste 16 Noroeste 4.4 -- -- 95
2018-02-05 06:00:00 4.4 4 Noroeste 8 Sudoeste 1.4 -- -- 97
2018-02-05 05:00:00 4.2 0 Calma 3 Noroeste 0 -- -- 97
2018-02-05 04:00:00 4.3 2 Norte 7 Noroeste 0.2 -- -- 97
2018-02-05 03:00:00 4.1 0 Calma 5 Sur 0.2 -- -- 97
2018-02-05 02:00:00 4.1 0 Calma 4 Sudoeste 0 -- -- 96
2018-02-05 01:00:00 4.4 2 Sudoeste 6 Sur 0 -- -- 96
2018-02-05 00:00:00 4.4 0 Calma 5 Sudeste 0 -- -- 96
2018-02-04 23:00:00 4.6 0 Calma 5 Sudeste 0 -- -- 96
2018-02-04 22:00:00 4.7 0 Calma 9 Norte 0 -- -- 95
2018-02-04 21:00:00 4.8 4 Norte 8 Norte 0.2 -- -- 95
2018-02-04 20:00:00 5.1 3 Sudeste 5 Este 0.2 -- -- 95
2018-02-04 19:00:00 5.3 0 Calma 4 Norte 0 -- -- 92
2018-02-04 18:00:00 5.6 3 Nordeste 6 Este 0 -- -- 91
2018-02-04 17:00:00 5.9 3 Nordeste 8 Norte 0.2 -- -- 89
2018-02-04 16:00:00 5.8 3 Nordeste 7 Este 0 -- -- 89
2018-02-04 15:00:00 5.4 3 Este 6 Sudeste 0.4 -- -- 94
2018-02-04 14:00:00 4.9 0 Calma 10 Sur 0.4 -- -- 92
2018-02-04 13:00:00 4.8 0 Calma 5 Sudoeste 1.8 -- -- 94
2018-02-04 12:00:00 4.4 2 Sur 11 Norte 1.8 -- -- 93
2018-02-04 11:00:00 4.3 7 Norte 13 Norte 2.4 -- -- 92
2018-02-04 10:00:00 5.1 6 Nordeste 10 Norte 3.8 -- -- 94
2018-02-04 09:00:00 5.4 4 Norte 9 Sudeste 2.2 -- -- 93
2018-02-04 08:00:00 5.3 0 Calma 5 Nordeste 0.4 -- -- 91
2018-02-04 07:00:00 5.5 0 Calma 10 Norte 0.2 -- -- 88
2018-02-04 06:00:00 5.3 4 Oeste 8 Oeste 0.2 -- -- 85
2018-02-04 05:00:00 5.6 2 Sur 8 Nordeste 0 -- -- 80
2018-02-04 04:00:00 5.8 0 Calma 6 Norte 0 -- -- 73
2018-02-04 03:00:00 6.1 3 Sudoeste 9 Noroeste 0 -- -- 65
2018-02-04 02:00:00 7.5 3 Este 9 Norte 0 -- -- 59
2018-02-04 01:00:00 7.9 4 Oeste 14 Noroeste 0 -- -- 56
2018-02-04 00:00:00 8.9 4 Sur 15 Este 0 -- -- 52
2018-02-03 23:00:00 9 8 Sudeste 26 Noroeste 0 -- -- 51
2018-02-03 22:00:00 9.9 12 Noroeste 37 Noroeste 0 -- -- 46
2018-02-03 21:00:00 10.1 14 Norte 50 Noroeste 0 -- -- 46
2018-02-03 20:00:00 10.1 21 Noroeste 36 Noroeste 0 -- -- 46
2018-02-03 19:00:00 10.1 9 Noroeste 25 Noroeste 0 -- -- 46
2018-02-03 18:00:00 11 9 Oeste 54 Noroeste 0 -- -- 43
2018-02-03 17:00:00 12.1 15 Noroeste 36 Norte 0 -- -- 40
2018-02-03 16:00:00 12.1 15 Norte 39 Noroeste 0 -- -- 36
2018-02-03 15:00:00 10.9 19 Noroeste 31 Noroeste 0 -- -- 36
2018-02-03 14:00:00 10.6 14 Noroeste 30 Noroeste 0 -- -- 38
2018-02-03 13:00:00 10.6 23 Noroeste 37 Oeste 0 -- -- 40
2018-02-03 12:00:00 8 22 Norte 47 Noroeste 0 -- -- 47
2018-02-03 11:00:00 7 19 Noroeste 37 Norte 0 -- -- 49
2018-02-03 10:00:00 8.2 14 Noroeste 44 Norte 0 -- -- 43
2018-02-03 09:00:00 7.4 6 Sur 63 Norte 0 -- -- 43
2018-02-03 08:00:00 6.3 31 Norte 58 Norte 0 -- -- 45
2018-02-03 07:00:00 6 19 Norte 46 Norte 0 -- -- 45
2018-02-03 06:00:00 6 28 Norte 61 Norte 0 -- -- 45
2018-02-03 05:00:00 5.6 26 Norte 61 Norte 0 -- -- 45
2018-02-03 04:00:00 5.1 39 Norte 77 Norte 0 -- -- 49
2018-02-03 03:00:00 5.4 37 Norte 65 Norte 0 -- -- 47
2018-02-03 02:00:00 5.1 25 Norte 54 Noroeste 0 -- -- 47
2018-02-03 01:00:00 4.9 30 Norte 57 Norte 0 -- -- 47
2018-02-03 00:00:00 5.1 24 Norte 48 Norte 0 -- -- 43
2018-02-02 23:00:00 4.5 23 Norte 55 Norte 0 -- -- 46
2018-02-02 22:00:00 5 28 Norte 57 Norte 0 -- -- 44
2018-02-02 21:00:00 5.2 34 Norte 62 Norte 0 -- -- 45
2018-02-02 20:00:00 5.3 35 Norte 67 Norte 0 -- -- 47
2018-02-02 19:00:00 5.6 29 Norte 58 Norte 0 -- -- 44
2018-02-02 18:00:00 6.6 19 Norte 36 Noroeste 0 -- -- 39
2018-02-02 17:00:00 8 16 Norte 42 Norte 0 -- -- 38
2018-02-02 16:00:00 8.9 10 Nordeste 37 Nordeste 0 -- -- 37
2018-02-02 15:00:00 8.4 22 Nordeste 36 Norte 0 -- -- 38
2018-02-02 14:00:00 7.8 18 Norte 56 Norte 0 -- -- 43
2018-02-02 13:00:00 6.8 29 Norte 53 Norte 0 -- -- 49
2018-02-02 12:00:00 6.2 10 Norte 37 Norte 0 -- -- 51
2018-02-02 11:00:00 5.7 15 Nordeste 40 Nordeste 0 -- -- 56
2018-02-02 10:00:00 5.2 14 Nordeste 36 Nordeste 0 -- -- 59
2018-02-02 09:00:00 4.8 12 Nordeste 23 Nordeste 0.2 -- -- 64
2018-02-02 08:00:00 4.5 10 Nordeste 31 Nordeste 0 -- -- 65
2018-02-02 07:00:00 4.7 15 Nordeste 36 Norte 0 -- -- 63
2018-02-02 06:00:00 4.5 14 Norte 36 Norte 0 -- -- 64
2018-02-02 05:00:00 4.4 11 Nordeste 27 Norte 0 -- -- 65
2018-02-02 04:00:00 4.7 12 Norte 22 Nordeste 0 -- -- 64
2018-02-02 03:00:00 5 6 Nordeste 18 Norte 0 -- -- 63
2018-02-02 02:00:00 5.2 6 Nordeste 21 Nordeste 0 -- -- 61
2018-02-02 01:00:00 4.5 2 Sur 10 Norte 0 -- -- 68
2018-02-02 00:00:00 4.5 0 Calma 18 Norte 0 -- -- 71
2018-02-01 23:00:00 5.4 7 Norte 25 Norte 0 -- -- 64
2018-02-01 22:00:00 5 3 Norte 15 Oeste 0 -- -- 86
2018-02-01 21:00:00 5.3 2 Sudeste 6 Oeste 0 -- -- 91
2018-02-01 20:00:00 5.5 3 Sudoeste 7 Sudoeste 0 -- -- 92
2018-02-01 19:00:00 5.8 3 Sudoeste 5 Noroeste 0.2 -- -- 90
2018-02-01 18:00:00 6.2 2 Noroeste 10 Oeste 0.4 -- -- 87
2018-02-01 17:00:00 6.8 7 Norte 17 Norte 0.8 -- -- 80
2018-02-01 16:00:00 7.5 14 Norte 37 Norte 1 -- -- 79
2018-02-01 15:00:00 12.3 13 Norte 25 Norte 0 -- -- 49
2018-02-01 14:00:00 13.1 3 Sur 11 Sudeste 0 -- -- 43
2018-02-01 13:00:00 12.7 2 Nordeste 6 Este 0 -- -- 44
2018-02-01 12:00:00 11.2 0 Calma 6 Noroeste 0 -- -- 52
2018-02-01 11:00:00 8.1 4 Sudoeste 14 Sudoeste 0 -- -- 66
2018-02-01 10:00:00 6.4 0 Calma 9 Sudoeste 0 -- -- 71
2018-02-01 09:00:00 2.6 3 Oeste 9 Noroeste 0 -- -- 94
2018-02-01 08:00:00 0.4 4 Sudoeste 6 Oeste 0 -- -- 94
2018-02-01 07:00:00 0.3 0 Calma 8 Norte 0 -- -- 94
2018-02-01 06:00:00 0.1 2 Sudoeste 4 Oeste 0 -- -- 94
2018-02-01 05:00:00 0.7 2 Noroeste 8 Oeste 0 -- -- 96
2018-02-01 04:00:00 0.6 0 Calma 4 Oeste 0 -- -- 95
2018-02-01 03:00:00 0.9 3 Oeste 5 Sur 0 -- -- 94
2018-02-01 02:00:00 1.4 2 Sudoeste 7 Norte 0 -- -- 94
2018-02-01 01:00:00 1.9 0 Calma 4 Norte 0 -- -- 93
2018-02-01 00:00:00 2.3 2 Sudoeste 5 Sudoeste 0 -- -- 91
2018-01-31 23:00:00 3.4 0 Calma 7 Sudeste 0 -- -- 90
2018-01-31 22:00:00 4.6 2 Noroeste 9 Norte 0 -- -- 85
2018-01-31 21:00:00 5.2 6 Oeste 8 Oeste 0 -- -- 85
2018-01-31 20:00:00 7 4 Norte 9 Noroeste 0 -- -- 77
2018-01-31 19:00:00 8.6 6 Sudoeste 10 Sudoeste 0 -- -- 75
2018-01-31 18:00:00 12.1 5 Sudeste 11 Sur 0 -- -- 62
2018-01-31 17:00:00 13.9 9 Sur 15 Sudoeste 0 -- -- 56
2018-01-31 16:00:00 15 9 Sudeste 19 Sudeste 0 -- -- 50
2018-01-31 15:00:00 15.3 8 Sur 21 Sudeste 0 -- -- 48
2018-01-31 14:00:00 15 8 Sur 17 Sur 0 -- -- 47
2018-01-31 13:00:00 14.6 9 Sur 20 Sur 0 -- -- 50
2018-01-31 12:00:00 12.7 5 Sudeste 8 Sur 0 -- -- 57
2018-01-31 11:00:00 9 0 Calma 4 Sur 0 -- -- 62
2018-01-31 10:00:00 5.2 0 Calma 3 Sur 0 -- -- 79
2018-01-31 09:00:00 0.1 0 Calma 4 Norte 0 -- -- 95
2018-01-31 08:00:00 -1 0 Calma 2 Norte 0 -- -- 93
2018-01-31 07:00:00 -0.8 0 Calma 2 Noroeste 0 -- -- 93
2018-01-31 06:00:00 -0.7 0 Calma 2 Sudeste 0 -- -- 92
2018-01-31 05:00:00 -0.4 0 Calma 3 Norte 0 -- -- 92
2018-01-31 04:00:00 0 0 Calma 2 Sudoeste 0 -- -- 91
2018-01-31 03:00:00 0.7 0 Calma 2 Sur 0 -- -- 91
2018-01-31 02:00:00 1 0 Calma 2 Norte 0 -- -- 90
2018-01-31 01:00:00 1.4 0 Calma 0 Calma 0 -- -- 88
2018-01-31 00:00:00 2.3 0 Calma 2 Norte 0 -- -- 87
2018-01-30 23:00:00 2.8 0 Calma 2 Sudeste 0 -- -- 84
2018-01-30 22:00:00 3.7 0 Calma 4 Norte 0 -- -- 81
2018-01-30 21:00:00 4.9 0 Calma 9 Norte 0 -- -- 77
2018-01-30 20:00:00 6.7 0 Calma 6 Oeste 0 -- -- 71
2018-01-30 19:00:00 9.3 4 Oeste 12 Sudoeste 0 -- -- 64
2018-01-30 18:00:00 12.5 7 Sudoeste 15 Sur 0 -- -- 54
2018-01-30 17:00:00 15.5 11 Sur 22 Sudeste 0 -- -- 46
2018-01-30 16:00:00 16.7 9 Sur 18 Sudoeste 0 -- -- 43
2018-01-30 15:00:00 17.1 9 Sudoeste 21 Sudoeste 0 -- -- 39
2018-01-30 14:00:00 16.9 8 Sur 18 Sur 0 -- -- 40
2018-01-30 13:00:00 16.1 8 Sur 14 Sur 0 -- -- 42
2018-01-30 12:00:00 13.5 3 Sudeste 5 Sur 0 -- -- 50
2018-01-30 11:00:00 10.1 0 Calma 5 Sur 0 -- -- 60
2018-01-30 10:00:00 6.3 0 Calma 2 Este 0 -- -- 87
2018-01-30 09:00:00 1.2 0 Calma 2 Sudoeste 0 -- -- 98
2018-01-30 08:00:00 0.1 0 Calma 4 Noroeste 0 -- -- 96
2018-01-30 07:00:00 0.6 0 Calma 2 Oeste 0 -- -- 97
2018-01-30 06:00:00 0.5 0 Calma 2 Sudoeste 0 -- -- 96
2018-01-30 05:00:00 1 0 Calma 4 Oeste 0 -- -- 95
2018-01-30 04:00:00 1.1 2 Norte 4 Noroeste 0 -- -- 95
2018-01-30 03:00:00 1.4 0 Calma 2 Sur 0 -- -- 95
2018-01-30 02:00:00 1.6 0 Calma 2 Norte 0 -- -- 93
2018-01-30 01:00:00 2.6 0 Calma 2 Noroeste 0 -- -- 93
2018-01-30 00:00:00 2.8 0 Calma 3 Norte 0 -- -- 90
2018-01-29 23:00:00 3.6 0 Calma 2 Sur 0 -- -- 90
2018-01-29 22:00:00 4.4 0 Calma 4 Norte 0 -- -- 86
2018-01-29 21:00:00 5.8 0 Calma 5 Noroeste 0 -- -- 82
2018-01-29 20:00:00 7.5 0 Calma 7 Noroeste 0 -- -- 77
2018-01-29 19:00:00 9.5 4 Norte 8 Oeste 0 -- -- 72
2018-01-29 18:00:00 12.5 6 Sudoeste 16 Sur 0 -- -- 63
2018-01-29 17:00:00 15.4 8 Sudoeste 18 Sur 0 -- -- 53
2018-01-29 16:00:00 16.3 8 Sur 17 Sudeste 0 -- -- 49
2018-01-29 15:00:00 16.3 5 Sur 13 Sudeste 0 -- -- 48
2018-01-29 14:00:00 15.6 5 Sudoeste 13 Sudeste 0 -- -- 50
2018-01-29 13:00:00 15.4 7 Sudeste 15 Sudeste 0 -- -- 52
2018-01-29 12:00:00 13.6 3 Sudoeste 6 Sur 0 -- -- 58
2018-01-29 11:00:00 10 4 Sudoeste 6 Sudoeste 0 -- -- 70
2018-01-29 10:00:00 6.1 0 Calma 3 Sur 0 -- -- 99
2018-01-29 09:00:00 1.4 0 Calma 4 Oeste 0 -- -- 98
2018-01-29 08:00:00 0.3 0 Calma 2 Sudoeste 0 -- -- 97
2018-01-29 07:00:00 0.4 0 Calma 2 Este 0 -- -- 96
2018-01-29 06:00:00 0.8 0 Calma 3 Oeste 0 -- -- 96
2018-01-29 05:00:00 1 0 Calma 5 Norte 0 -- -- 96
2018-01-29 04:00:00 1.5 0 Calma 6 Norte 0 -- -- 96
2018-01-29 03:00:00 1.8 3 Norte 5 Norte 0 -- -- 95
2018-01-29 02:00:00 2.4 0 Calma 3 Noroeste 0 -- -- 95
2018-01-29 01:00:00 2.8 0 Calma 3 Nordeste 0 -- -- 94
2018-01-29 00:00:00 3.6 0 Calma 2 Norte 0 -- -- 93
2018-01-28 23:00:00 4.1 0 Calma 5 Oeste 0 -- -- 91
2018-01-28 22:00:00 5.8 0 Calma 4 Oeste 0 -- -- 89
2018-01-28 21:00:00 7 0 Calma 5 Norte 0 -- -- 86
2018-01-28 20:00:00 8.8 4 Norte 10 Nordeste 0 -- -- 80
2018-01-28 19:00:00 10.2 6 Norte 19 Nordeste 0 -- -- 76
2018-01-28 18:00:00 10.3 6 Norte 18 Norte 0 -- -- 76
2018-01-28 17:00:00 10.1 7 Nordeste 23 Nordeste 0 -- -- 78
2018-01-28 16:00:00 10.2 13 Nordeste 25 Nordeste 0 -- -- 78
2018-01-28 15:00:00 10.1 14 Nordeste 26 Nordeste 0 -- -- 80
2018-01-28 14:00:00 10.3 10 Nordeste 31 Nordeste 0 -- -- 81
2018-01-28 13:00:00 10.2 17 Nordeste 32 Nordeste 0 -- -- 79
2018-01-28 12:00:00 10 16 Nordeste 32 Nordeste 0 -- -- 78
2018-01-28 11:00:00 10.2 19 Nordeste 34 Nordeste 0 -- -- 74
2018-01-28 10:00:00 10.1 18 Nordeste 36 Nordeste 0 -- -- 74
2018-01-28 09:00:00 9.8 17 Nordeste 34 Nordeste 0 -- -- 76
2018-01-28 08:00:00 9.1 14 Nordeste 30 Norte 0 -- -- 78
2018-01-28 07:00:00 8.8 12 Nordeste 25 Nordeste 0.2 -- -- 80
2018-01-28 06:00:00 8.1 7 Nordeste 25 Nordeste 0 -- -- 82
2018-01-28 05:00:00 7.4 9 Norte 28 Norte 0.4 -- -- 85
2018-01-28 04:00:00 7.5 15 Norte 28 Nordeste 0 -- -- 76
2018-01-28 03:00:00 7.7 16 Norte 30 Norte 0 -- -- 71
2018-01-28 02:00:00 7.8 15 Nordeste 36 Norte 0 -- -- 69
2018-01-28 01:00:00 8.1 17 Nordeste 40 Norte 0 -- -- 64
2018-01-28 00:00:00 8.4 12 Nordeste 44 Norte 0 -- -- 61
2018-01-27 23:00:00 8.4 20 Norte 39 Norte 0 -- -- 58
2018-01-27 22:00:00 8.2 20 Norte 33 Nordeste 0 -- -- 56
2018-01-27 21:00:00 8.7 17 Norte 34 Norte 0 -- -- 54
2018-01-27 20:00:00 8.5 12 Nordeste 30 Norte 0 -- -- 53
2018-01-27 19:00:00 9.2 14 Norte 28 Norte 0 -- -- 49
2018-01-27 18:00:00 9.4 16 Nordeste 36 Norte 0 -- -- 50
2018-01-27 17:00:00 9.6 15 Norte 31 Norte 0 -- -- 51
2018-01-27 16:00:00 10 18 Nordeste 38 Norte 0 -- -- 47
2018-01-27 15:00:00 11.2 19 Norte 36 Norte 0 -- -- 45
2018-01-27 14:00:00 11.4 16 Norte 37 Nordeste 0 -- -- 44
2018-01-27 13:00:00 11.2 20 Norte 33 Norte 0 -- -- 44
2018-01-27 12:00:00 9.9 17 Norte 41 Norte 0 -- -- 45
2018-01-27 11:00:00 9.4 18 Norte 43 Norte 0 -- -- 48
2018-01-27 10:00:00 8.3 11 Norte 33 Norte 0 -- -- 51
2018-01-27 09:00:00 6.1 4 Sudeste 21 Norte 0 -- -- 56
2018-01-27 08:00:00 6.4 11 Nordeste 41 Norte 0 -- -- 56
2018-01-27 07:00:00 6.6 14 Nordeste 44 Noroeste 0 -- -- 56
2018-01-27 06:00:00 6.8 26 Norte 51 Norte 0 -- -- 57
2018-01-27 05:00:00 7 28 Norte 52 Norte 0 -- -- 56
2018-01-27 04:00:00 7.3 28 Norte 50 Norte 0 -- -- 54
2018-01-27 03:00:00 7.4 19 Norte 50 Norte 0 -- -- 55
2018-01-27 02:00:00 7.5 27 Norte 65 Norte 0 -- -- 56
2018-01-27 01:00:00 7.6 27 Norte 51 Norte 0 -- -- 57
2018-01-27 00:00:00 7.9 28 Norte 54 Noroeste 0 -- -- 55
2018-01-26 23:00:00 8 25 Norte 59 Norte 0 -- -- 56
2018-01-26 22:00:00 8 31 Norte 58 Norte 0 -- -- 56
2018-01-26 21:00:00 7.8 30 Norte 55 Norte 0 -- -- 58
2018-01-26 20:00:00 7.6 30 Norte 62 Norte 0 -- -- 60
2018-01-26 19:00:00 7.7 14 Norte 37 Nordeste 0 -- -- 62
2018-01-26 18:00:00 8.3 20 Norte 54 Norte 0 -- -- 59
2018-01-26 17:00:00 9 18 Norte 49 Nordeste 0 -- -- 54
2018-01-26 16:00:00 9 26 Norte 49 Norte 0 -- -- 55
2018-01-26 15:00:00 8.4 24 Norte 60 Norte 0 -- -- 60
2018-01-26 14:00:00 8.9 35 Norte 75 Norte 0 -- -- 56
2018-01-26 13:00:00 8.5 34 Norte 74 Norte 0 -- -- 59
2018-01-26 12:00:00 7.7 32 Norte 63 Norte 0 -- -- 65
2018-01-26 11:00:00 7.4 33 Norte 70 Norte 0 -- -- 66
2018-01-26 10:00:00 7.8 38 Norte 62 Norte 0 -- -- 60
2018-01-26 09:00:00 8 24 Norte 54 Noroeste 0 -- -- 59
2018-01-26 08:00:00 7.8 31 Norte 60 Norte 0 -- -- 61
2018-01-26 07:00:00 7.5 21 Norte 41 Norte 0 -- -- 64
2018-01-26 06:00:00 7.3 12 Norte 38 Norte 0 -- -- 68
2018-01-26 05:00:00 7.1 9 Norte 23 Norte 0 -- -- 74
2018-01-26 04:00:00 6.6 6 Nordeste 16 Este 0 -- -- 83
2018-01-26 03:00:00 7 8 Nordeste 17 Este 0.4 -- -- 94
2018-01-26 02:00:00 8.1 3 Sudeste 7 Noroeste 2 -- -- 97
2018-01-26 01:00:00 8.1 0 Calma 7 Sudeste 1.6 -- -- 96
2018-01-26 00:00:00 7.9 0 Calma 5 Oeste 0.2 -- -- 94
2018-01-25 23:00:00 8.2 3 Sudoeste 5 Oeste 0.2 -- -- 92
2018-01-25 22:00:00 8.3 4 Norte 11 Sudoeste 0 -- -- 90
2018-01-25 21:00:00 8.3 3 Norte 7 Norte 0 -- -- 88
2018-01-25 20:00:00 9.2 3 Nordeste 6 Noroeste 0 -- -- 86
2018-01-25 19:00:00 10.4 2 Norte 5 Sudeste 0 -- -- 79
2018-01-25 18:00:00 12.3 2 Este 10 Sur 0 -- -- 74
2018-01-25 17:00:00 13.8 7 Sur 15 Sudeste 0 -- -- 69
2018-01-25 16:00:00 14.8 8 Sudeste 15 Sudeste 0 -- -- 65
2018-01-25 15:00:00 13.9 4 Sudeste 16 Sudeste 0 -- -- 70
2018-01-25 14:00:00 13.1 3 Este 11 Sudeste 0 -- -- 72
2018-01-25 13:00:00 11.6 3 Este 7 Nordeste 0 -- -- 77
2018-01-25 12:00:00 8.5 0 Calma 6 Norte 0 -- -- 97
2018-01-25 11:00:00 6.1 0 Calma 3 Sur 0 -- -- 98
2018-01-25 10:00:00 4.7 0 Calma 3 Sudeste 0 -- -- 98
2018-01-25 09:00:00 3 0 Calma 2 Noroeste 0 -- -- 98
2018-01-25 08:00:00 1.7 0 Calma 0 Calma 0 -- -- 97
2018-01-25 07:00:00 1.8 0 Calma 2 Este 0 -- -- 96
2018-01-25 06:00:00 1.8 0 Calma 2 Sudeste 0 -- -- 96
2018-01-25 05:00:00 2.1 0 Calma 4 Norte 0 -- -- 94
2018-01-25 04:00:00 2.6 2 Noroeste 3 Noroeste 0 -- -- 94
2018-01-25 03:00:00 2.8 0 Calma 4 Oeste 0 -- -- 94
2018-01-25 02:00:00 3.1 3 Oeste 4 Oeste 0 -- -- 93
2018-01-25 01:00:00 3.8 0 Calma 2 Sudeste 0 -- -- 92
2018-01-25 00:00:00 4.3 0 Calma 2 Sudoeste 0 -- -- 91
2018-01-24 23:00:00 4.9 0 Calma 2 Nordeste 0 -- -- 90
2018-01-24 22:00:00 5.7 0 Calma 2 Norte 0 -- -- 85
2018-01-24 21:00:00 6.9 0 Calma 2 Nordeste 0 -- -- 83
2018-01-24 20:00:00 8.6 3 Sur 10 Norte 0 -- -- 79
2018-01-24 19:00:00 10.7 4 Norte 7 Sudoeste 0 -- -- 72
2018-01-24 18:00:00 13 6 Sudoeste 16 Sudoeste 0 -- -- 67
2018-01-24 17:00:00 16.1 10 Sur 17 Sur 0 -- -- 57
2018-01-24 16:00:00 17.5 11 Sur 23 Sur 0 -- -- 53
2018-01-24 15:00:00 18.2 15 Sur 26 Sur 0 -- -- 51
2018-01-24 14:00:00 18.1 16 Sur 26 Sur 0 -- -- 48
2018-01-24 13:00:00 18 10 Sur 20 Sur 0 -- -- 47
2018-01-24 12:00:00 14.9 4 Este 8 Este 0 -- -- 56
2018-01-24 11:00:00 11.7 0 Calma 4 Sudeste 0 -- -- 65
2018-01-24 10:00:00 7.9 0 Calma 2 Oeste 0 -- -- 81
2018-01-24 09:00:00 3.2 0 Calma 3 Oeste 0 -- -- 94
2018-01-24 08:00:00 2.6 0 Calma 3 Nordeste 0 -- -- 93
2018-01-24 07:00:00 2.7 0 Calma 2 Norte 0 -- -- 92
2018-01-24 06:00:00 2.9 0 Calma 2 Sudeste 0 -- -- 90
2018-01-24 05:00:00 3.5 0 Calma 2 Sudeste 0 -- -- 89
2018-01-24 04:00:00 4.1 0 Calma 3 Norte 0 -- -- 89
2018-01-24 03:00:00 4.2 0 Calma 2 Sudoeste 0 -- -- 88
2018-01-24 02:00:00 4.8 0 Calma 2 Sudeste 0 -- -- 86
2018-01-24 01:00:00 5.4 0 Calma 3 Sudeste 0 -- -- 86
2018-01-24 00:00:00 5.7 0 Calma 3 Norte 0 -- -- 82
2018-01-23 23:00:00 6.7 0 Calma 2 Este 0 -- -- 81
2018-01-23 22:00:00 7.5 0 Calma 4 Sur 0 -- -- 75
2018-01-23 21:00:00 8.7 0 Calma 6 Sudeste 0 -- -- 71
2018-01-23 20:00:00 11.1 3 Noroeste 8 Noroeste 0 -- -- 65
2018-01-23 19:00:00 12.8 3 Noroeste 5 Oeste 0 -- -- 61
2018-01-23 18:00:00 16.1 2 Noroeste 13 Sudeste 0 -- -- 52
2018-01-23 17:00:00 18.7 11 Sur 16 Sudeste 0 -- -- 45
2018-01-23 16:00:00 20.1 6 Sur 16 Sur 0 -- -- 40
2018-01-23 15:00:00 20.7 8 Sur 18 Sudeste 0 -- -- 37
2018-01-23 14:00:00 21.6 7 Sur 18 Este 0 -- -- 33
2018-01-23 13:00:00 20.6 5 Sudeste 13 Sudeste 0 -- -- 37
2018-01-23 12:00:00 18.8 4 Norte 12 Norte 0 -- -- 40
2018-01-23 11:00:00 17.2 4 Sur 9 Sudoeste 0 -- -- 44
2018-01-23 10:00:00 13.1 4 Sur 12 Norte 0 -- -- 47
2018-01-23 09:00:00 8.6 3 Norte 10 Noroeste 0 -- -- 55
2018-01-23 08:00:00 11.7 10 Oeste 25 Nordeste 0 -- -- 46
2018-01-23 07:00:00 13 14 Nordeste 19 Nordeste 0 -- -- 48
2018-01-23 06:00:00 10.9 9 Norte 12 Norte 0 -- -- 54
2018-01-23 05:00:00 9.2 2 Sudoeste 9 Noroeste 0 -- -- 62
2018-01-23 04:00:00 11.4 5 Oeste 25 Norte 0 -- -- 58
2018-01-23 03:00:00 14.2 17 Norte 27 Norte 0 -- -- 51
2018-01-23 02:00:00 12.1 7 Noroeste 17 Noroeste 0 -- -- 60
2018-01-23 01:00:00 13.4 8 Norte 27 Oeste 0 -- -- 54
2018-01-23 00:00:00 15 10 Noroeste 27 Noroeste 0 -- -- 50
2018-01-22 23:00:00 15.2 13 Noroeste 31 Oeste 0 -- -- 49
2018-01-22 22:00:00 15.5 14 Sudoeste 30 Oeste 0 -- -- 45
2018-01-22 21:00:00 15.7 10 Sudoeste 25 Noroeste 0 -- -- 36
2018-01-22 20:00:00 16.3 9 Oeste 18 Oeste 0 -- -- 32
2018-01-22 19:00:00 15.7 9 Norte 15 Norte 0 -- -- 32
2018-01-22 18:00:00 19.6 9 Noroeste 25 Norte 0 -- -- 27
2018-01-22 17:00:00 22.3 13 Norte 28 Norte 0 -- -- 26
2018-01-22 16:00:00 25 4 Sudeste 10 Sudeste 0 -- -- 22
2018-01-22 15:00:00 24.2 2 Nordeste 12 Sudeste 0 -- -- 26
2018-01-22 14:00:00 24.3 6 Sur 15 Sur 0 -- -- 27
2018-01-22 13:00:00 23.6 9 Sur 16 Sur 0 -- -- 29
2018-01-22 12:00:00 21.2 5 Sur 9 Sudeste 0 -- -- 35
2018-01-22 11:00:00 17.5 3 Sur 6 Sudoeste 0 -- -- 45
2018-01-22 10:00:00 12.7 0 Calma 5 Sudoeste 0 -- -- 55
2018-01-22 09:00:00 7.5 0 Calma 6 Oeste 0 -- -- 69
2018-01-22 08:00:00 7.3 3 Sudoeste 10 Oeste 0 -- -- 67
2018-01-22 07:00:00 7.8 5 Oeste 14 Oeste 0 -- -- 67
2018-01-22 06:00:00 9.1 4 Oeste 13 Oeste 0 -- -- 63
2018-01-22 05:00:00 9.7 3 Oeste 13 Noroeste 0 -- -- 62
2018-01-22 04:00:00 11.4 3 Norte 15 Sudoeste 0 -- -- 58
2018-01-22 03:00:00 15.3 12 Nordeste 19 Nordeste 0 -- -- 47
2018-01-22 02:00:00 15.6 16 Este 28 Este 0 -- -- 50
2018-01-22 01:00:00 15.4 9 Este 19 Este 0 -- -- 51
2018-01-22 00:00:00 15.5 6 Sudoeste 22 Nordeste 0 -- -- 54